Time;durP1;ratioP1;P1;durP2;ratioP2;P2;SDS_P1;SDS_P2;PMS_P1;PMS_P2;Temp;Humidity;BMP_temperature;BMP_pressure;BME280_temperature;BME280_humidity;BME280_pressure;Samples;Min_cycle;Max_cycle;Signal;HPM_P1;HPM_P2
2023/12/29 00:01:59;;;;;;;32.92;14.85;;;3.70;99.90;;;;;;5101671;28;20028;-73
2023/12/29 00:04:25;;;;;;;31.80;12.90;;;3.70;99.90;;;;;;5102408;28;20095;-73
2023/12/29 00:06:51;;;;;;;31.55;16.88;;;3.60;99.90;;;;;;5102223;28;20024;-73
2023/12/29 00:09:17;;;;;;;36.58;17.63;;;3.60;99.90;;;;;;5102308;28;20031;-73
2023/12/29 00:11:43;;;;;;;35.22;16.75;;;3.60;99.90;;;;;;5102540;28;20016;-73
2023/12/29 00:14:08;;;;;;;27.75;14.35;;;3.60;99.90;;;;;;5102520;28;20035;-73
2023/12/29 00:16:34;;;;;;;25.38;13.85;;;3.70;99.90;;;;;;5103064;28;20091;-74
2023/12/29 00:18:59;;;;;;;42.50;21.98;;;3.60;99.90;;;;;;5103518;28;20235;-74
2023/12/29 00:21:25;;;;;;;35.15;18.05;;;3.40;99.90;;;;;;5085281;28;20314;-75
2023/12/29 00:23:51;;;;;;;43.50;22.20;;;3.50;99.90;;;;;;5103401;28;20031;-73
2023/12/29 00:26:17;;;;;;;39.55;20.88;;;3.40;99.90;;;;;;5102766;28;20032;-73
2023/12/29 00:28:44;;;;;;;36.78;19.23;;;3.70;99.90;;;;;;5103361;28;20032;-74
2023/12/29 00:31:15;;;;;;;33.80;18.45;;;3.50;99.90;;;;;;5104558;28;20024;-77
2023/12/29 00:33:41;;;;;;;33.28;16.70;;;3.40;99.90;;;;;;5104801;28;20093;-75
2023/12/29 00:36:07;;;;;;;27.85;15.15;;;3.40;99.90;;;;;;5086903;28;20344;-76
2023/12/29 00:38:33;;;;;;;27.20;14.27;;;;;;;;;;5104863;28;20038;-76
2023/12/29 00:40:59;;;;;;;32.17;15.38;;;;;;;;;;5086953;28;20139;-76
2023/12/29 00:43:25;;;;;;;25.13;14.65;;;3.30;99.90;;;;;;5084392;23;20048;-76
2023/12/29 00:45:50;;;;;;;25.45;15.02;;;3.30;99.90;;;;;;5067361;28;20024;-77
2023/12/29 00:48:16;;;;;;;29.85;15.48;;;3.40;99.90;;;;;;5085125;28;20040;-78
2023/12/29 00:50:42;;;;;;;34.22;16.08;;;;;;;;;;5066908;28;20214;-77
2023/12/29 00:53:08;;;;;;;26.13;13.82;;;;;;;;;;5084461;28;20074;-76
2023/12/29 00:55:34;;;;;;;28.98;14.30;;;3.30;99.90;;;;;;5084963;28;20049;-77
2023/12/29 00:58:00;;;;;;;28.25;13.32;;;3.70;99.90;;;;;;5084948;28;20044;-76
2023/12/29 01:00:25;;;;;;;26.77;12.52;;;3.30;99.90;;;;;;5085598;28;20060;-76
2023/12/29 01:02:51;;;;;;;31.85;13.63;;;3.70;99.90;;;;;;5085782;28;20021;-76
2023/12/29 01:05:17;;;;;;;29.48;13.75;;;3.40;99.90;;;;;;5075936;28;20021;-77
2023/12/29 01:07:43;;;;;;;32.90;15.60;;;;;;;;;;5063819;28;20017;-75
2023/12/29 01:10:09;;;;;;;41.85;18.35;;;3.50;99.90;;;;;;5062511;28;20313;-75
2023/12/29 01:12:35;;;;;;;27.02;14.38;;;3.20;99.90;;;;;;5063130;28;20051;-75
2023/12/29 01:15:01;;;;;;;27.20;14.70;;;3.40;99.90;;;;;;5062686;28;20309;-75
2023/12/29 01:17:28;;;;;;;33.83;17.67;;;;;;;;;;5063164;28;20339;-76
2023/12/29 01:19:54;;;;;;;40.13;16.73;;;;;;;;;;5063023;28;20236;-76
2023/12/29 01:22:20;;;;;;;35.22;18.13;;;;;;;;;;5062889;28;20021;-75
2023/12/29 01:24:45;;;;;;;30.38;17.40;;;3.40;99.90;;;;;;5062715;28;20515;-76
2023/12/29 01:27:11;;;;;;;31.58;17.40;;;3.40;99.90;;;;;;5062617;28;20086;-76
2023/12/29 01:29:37;;;;;;;39.35;18.65;;;;;;;;;;5061299;28;20317;-76
2023/12/29 01:32:06;;;;;;;33.17;17.00;;;3.50;99.90;;;;;;5082377;28;20021;-76
2023/12/29 01:34:33;;;;;;;40.25;19.58;;;3.50;99.90;;;;;;5082205;28;20091;-76
2023/12/29 01:37:00;;;;;;;38.78;18.08;;;3.50;99.90;;;;;;5082283;28;20032;-76
2023/12/29 01:39:25;;;;;;;38.47;19.75;;;3.80;99.90;;;;;;5082089;28;20320;-77
2023/12/29 01:41:51;;;;;;;34.72;18.27;;;3.60;99.90;;;;;;5082735;28;20044;-77
2023/12/29 01:44:17;;;;;;;29.30;16.83;;;;;;;;;;5064109;28;20240;-77
2023/12/29 01:46:43;;;;;;;37.63;21.33;;;;;;;;;;5081884;28;20009;-74
2023/12/29 01:49:09;;;;;;;32.55;18.10;;;3.70;99.90;;;;;;5080953;28;20056;-74
2023/12/29 01:51:35;;;;;;;36.22;17.05;;;3.90;99.90;;;;;;5080886;28;20039;-72
2023/12/29 01:54:01;;;;;;;29.63;16.08;;;3.80;99.90;;;;;;5080771;28;20020;-72
2023/12/29 01:56:27;;;;;;;24.15;13.20;;;3.80;99.90;;;;;;5080758;28;20044;-71
2023/12/29 01:58:55;;;;;;;21.92;12.05;;;3.90;99.90;;;;;;5080437;28;20040;-72
2023/12/29 02:01:21;;;;;;;16.17;10.85;;;3.90;99.90;;;;;;5080472;28;20019;-73
2023/12/29 02:03:47;;;;;;;23.75;11.50;;;4.10;99.90;;;;;;5081506;28;20025;-72
2023/12/29 02:06:14;;;;;;;21.77;12.50;;;4.10;99.90;;;;;;5084718;28;20091;-73
2023/12/29 02:08:43;;;;;;;20.58;11.57;;;3.90;99.90;;;;;;5084458;28;20056;-73
2023/12/29 02:11:10;;;;;;;17.47;11.07;;;3.90;99.90;;;;;;5084472;28;20055;-73
2023/12/29 02:13:35;;;;;;;16.40;10.00;;;3.90;99.90;;;;;;5084403;28;20032;-73
2023/12/29 02:16:17;;;;;;;17.17;10.85;;;3.90;99.90;;;;;;5084645;28;20043;-74
2023/12/29 02:18:45;;;;;;;23.88;11.10;;;3.90;99.90;;;;;;5096795;28;20061;-74
2023/12/29 02:21:11;;;;;;;16.20;10.57;;;4.00;99.90;;;;;;5095703;28;20024;-74
2023/12/29 02:23:37;;;;;;;24.40;13.77;;;;;;;;;;5101160;28;20035;-73
2023/12/29 02:26:09;;;;;;;19.60;11.90;;;3.90;99.90;;;;;;5104880;28;20030;-73
2023/12/29 02:28:39;;;;;;;22.85;13.57;;;3.90;99.90;;;;;;5104998;28;20020;-73
2023/12/29 02:31:14;;;;;;;27.35;13.82;;;3.70;99.90;;;;;;5086519;28;20054;-74
2023/12/29 02:33:42;;;;;;;23.85;13.77;;;3.70;99.90;;;;;;5092349;28;20111;-73
2023/12/29 02:36:10;;;;;;;26.27;13.50;;;3.70;99.90;;;;;;5083922;28;20081;-73
2023/12/29 02:38:36;;;;;;;23.58;12.45;;;3.60;99.90;;;;;;5083977;28;20277;-73
2023/12/29 02:41:02;;;;;;;26.80;16.02;;;3.60;99.90;;;;;;5083757;28;20013;-73
2023/12/29 02:43:31;;;;;;;33.88;17.17;;;3.60;99.90;;;;;;5083538;28;20407;-73
2023/12/29 02:45:56;;;;;;;33.63;17.20;;;3.60;99.90;;;;;;5083864;28;20028;-72
2023/12/29 02:48:22;;;;;;;41.97;18.65;;;3.60;99.90;;;;;;5093764;28;20027;-73
2023/12/29 02:50:47;;;;;;;36.42;19.52;;;3.60;99.90;;;;;;5104052;28;20077;-73
2023/12/29 02:53:13;;;;;;;38.35;19.77;;;3.80;99.90;;;;;;5103971;28;20024;-73
2023/12/29 02:55:39;;;;;;;41.60;20.83;;;3.80;99.90;;;;;;5103949;28;20087;-73
2023/12/29 02:58:04;;;;;;;48.25;23.13;;;3.80;99.90;;;;;;5103904;28;20189;-73
2023/12/29 03:00:30;;;;;;;44.10;22.33;;;3.80;99.90;;;;;;5103674;28;20044;-73
2023/12/29 03:02:56;;;;;;;42.20;22.10;;;3.90;99.90;;;;;;5103905;28;20024;-73
2023/12/29 03:05:21;;;;;;;46.58;21.20;;;4.00;99.90;;;;;;5103907;28;20339;-73
2023/12/29 03:07:47;;;;;;;43.97;21.60;;;4.20;99.90;;;;;;5103948;28;20016;-73
2023/12/29 03:10:13;;;;;;;40.85;19.08;;;4.00;99.90;;;;;;5103622;28;20020;-72
2023/12/29 03:12:39;;;;;;;39.30;18.20;;;4.10;99.90;;;;;;5103698;28;20367;-73
2023/12/29 03:15:05;;;;;;;40.13;20.52;;;4.00;99.90;;;;;;5103214;28;20032;-73
2023/12/29 03:17:30;;;;;;;32.22;18.17;;;3.90;99.90;;;;;;5103489;28;20055;-74
2023/12/29 03:19:56;;;;;;;35.72;18.60;;;4.10;99.90;;;;;;5103528;28;20040;-72
2023/12/29 03:22:22;;;;;;;29.80;16.98;;;4.10;99.90;;;;;;5085299;28;20051;-73
2023/12/29 03:24:48;;;;;;;28.42;16.52;;;4.10;99.90;;;;;;5085711;28;20087;-73
2023/12/29 03:27:13;;;;;;;33.55;17.52;;;3.90;99.90;;;;;;5104188;28;20016;-76
2023/12/29 03:29:39;;;;;;;34.58;17.73;;;;;;;;;;5104956;28;20081;-75
2023/12/29 03:32:07;;;;;;;34.75;18.52;;;4.20;99.90;;;;;;5103457;28;20305;-72
2023/12/29 03:34:32;;;;;;;31.70;17.77;;;4.20;99.90;;;;;;5103169;28;20027;-72
2023/12/29 03:36:58;;;;;;;24.90;14.93;;;4.30;99.90;;;;;;5103300;28;20208;-73
2023/12/29 03:39:24;;;;;;;27.98;15.45;;;4.40;99.90;;;;;;5103186;28;20063;-73
2023/12/29 03:41:49;;;;;;;19.15;11.82;;;4.30;99.90;;;;;;5103107;28;20023;-73
2023/12/29 03:44:16;;;;;;;22.60;12.00;;;4.20;99.90;;;;;;5103009;28;20127;-73
2023/12/29 03:46:43;;;;;;;22.58;12.75;;;4.20;99.90;;;;;;5084789;28;20036;-73
2023/12/29 03:49:08;;;;;;;17.95;10.60;;;4.20;99.90;;;;;;5102947;28;20323;-73
2023/12/29 03:51:34;;;;;;;19.55;11.48;;;4.00;99.90;;;;;;5102798;28;20024;-73
2023/12/29 03:54:00;;;;;;;22.02;12.80;;;4.30;99.90;;;;;;5102796;28;20024;-73
2023/12/29 03:56:28;;;;;;;25.02;13.93;;;4.20;99.90;;;;;;5101318;28;20016;-74
2023/12/29 03:58:53;;;;;;;29.02;15.60;;;4.10;99.90;;;;;;5087456;28;20032;-73
2023/12/29 04:01:19;;;;;;;29.33;16.10;;;4.20;99.90;;;;;;5082578;28;20312;-74
2023/12/29 04:03:46;;;;;;;40.70;20.00;;;4.20;99.90;;;;;;5082543;28;20035;-74
2023/12/29 04:06:12;;;;;;;38.22;22.20;;;;;;;;;;5082568;28;20035;-73
2023/12/29 04:08:38;;;;;;;39.47;21.38;;;4.30;99.90;;;;;;5082563;28;20020;-73
2023/12/29 04:11:05;;;;;;;42.95;22.42;;;4.30;99.90;;;;;;5082853;28;20023;-74
2023/12/29 04:13:31;;;;;;;35.78;19.48;;;4.10;99.90;;;;;;5081362;28;20123;-74
2023/12/29 04:15:57;;;;;;;32.08;18.17;;;4.30;99.90;;;;;;5082334;28;20209;-73
2023/12/29 04:18:23;;;;;;;34.65;18.83;;;4.20;99.90;;;;;;5081994;28;20039;-73
2023/12/29 04:20:49;;;;;;;43.42;22.83;;;4.20;99.90;;;;;;5082132;28;20040;-73
2023/12/29 04:23:15;;;;;;;36.53;18.67;;;4.10;99.90;;;;;;5080638;28;20028;-73
2023/12/29 04:25:41;;;;;;;36.95;19.67;;;4.10;99.90;;;;;;5081927;28;20032;-73
2023/12/29 04:28:07;;;;;;;39.00;19.27;;;4.00;99.90;;;;;;5080294;28;20204;-74
2023/12/29 04:30:33;;;;;;;38.80;21.58;;;4.00;99.90;;;;;;5085166;28;20107;-79
2023/12/29 04:32:59;;;;;;;33.97;20.00;;;;;;;;;;5082393;28;20021;-73
2023/12/29 04:35:25;;;;;;;37.15;20.00;;;3.90;99.90;;;;;;5082925;28;20016;-74
2023/12/29 04:37:51;;;;;;;44.55;22.38;;;3.80;99.90;;;;;;5084268;28;20028;-76
2023/12/29 04:40:17;;;;;;;37.58;20.67;;;4.10;99.90;;;;;;5084357;28;20036;-79
2023/12/29 04:42:43;;;;;;;40.42;22.00;;;;;;;;;;5086482;28;20040;-79
2023/12/29 04:45:10;;;;;;;44.83;22.17;;;;;;;;;;5104942;28;20036;-77
2023/12/29 04:47:36;;;;;;;45.35;24.60;;;;;;;;;;5104961;28;20012;-78
2023/12/29 04:50:02;;;;;;;42.70;21.65;;;;;;;;;;5103751;28;20077;-73
2023/12/29 04:52:29;;;;;;;44.72;21.83;;;3.80;99.90;;;;;;5101801;28;20031;-73
2023/12/29 04:54:55;;;;;;;39.10;21.90;;;3.90;99.90;;;;;;5101747;28;20101;-72
2023/12/29 04:57:20;;;;;;;43.30;21.85;;;3.70;99.90;;;;;;5101556;28;20028;-73
2023/12/29 04:59:46;;;;;;;40.30;22.33;;;3.90;99.90;;;;;;5101587;28;20099;-73
2023/12/29 05:02:12;;;;;;;47.80;21.60;;;3.80;99.90;;;;;;5101502;28;20082;-73
2023/12/29 05:04:38;;;;;;;44.75;21.40;;;4.20;99.90;;;;;;5101513;28;20019;-73
2023/12/29 05:07:05;;;;;;;43.55;22.75;;;3.70;99.90;;;;;;5101469;28;20342;-73
2023/12/29 05:09:31;;;;;;;40.05;22.35;;;3.70;99.90;;;;;;5101395;28;20091;-73
2023/12/29 05:11:57;;;;;;;37.20;20.30;;;3.70;99.90;;;;;;5101392;28;20039;-73
2023/12/29 05:14:22;;;;;;;40.30;21.02;;;3.80;99.90;;;;;;5083077;28;20250;-73
2023/12/29 05:16:48;;;;;;;43.50;21.20;;;3.50;99.90;;;;;;5101265;28;20023;-72
2023/12/29 05:19:13;;;;;;;40.97;21.15;;;3.80;99.90;;;;;;5101327;28;20070;-72
2023/12/29 05:21:39;;;;;;;42.70;21.33;;;3.70;99.90;;;;;;5101195;28;20103;-73
2023/12/29 05:24:05;;;;;;;35.72;19.63;;;3.60;99.90;;;;;;5101522;28;20032;-73
2023/12/29 05:26:31;;;;;;;41.42;20.95;;;3.80;99.90;;;;;;5092343;28;20069;-72
2023/12/29 05:28:57;;;;;;;35.30;18.40;;;3.80;99.90;;;;;;5081234;28;20493;-73
2023/12/29 05:31:23;;;;;;;38.97;20.00;;;3.80;99.90;;;;;;5086316;28;20016;-73
2023/12/29 05:33:48;;;;;;;32.88;18.13;;;3.70;99.90;;;;;;5101133;28;20082;-73
2023/12/29 05:36:14;;;;;;;40.80;21.67;;;3.70;99.90;;;;;;5100958;28;20028;-73
2023/12/29 05:38:41;;;;;;;36.13;20.58;;;4.00;99.90;;;;;;5101084;28;20088;-74
2023/12/29 05:41:07;;;;;;;36.47;19.40;;;3.40;99.90;;;;;;5101276;28;20036;-74
2023/12/29 05:43:34;;;;;;;42.50;20.27;;;3.50;99.90;;;;;;5101318;28;20048;-75
2023/12/29 05:46:01;;;;;;;37.85;19.38;;;3.20;99.90;;;;;;5081465;28;20021;-74
2023/12/29 05:48:27;;;;;;;36.97;19.27;;;3.20;99.90;;;;;;5081326;28;20024;-73
2023/12/29 05:50:52;;;;;;;39.28;21.05;;;2.90;99.90;;;;;;5080909;28;20024;-72
2023/12/29 05:53:18;;;;;;;39.13;20.30;;;3.00;99.90;;;;;;5080567;28;20027;-73
2023/12/29 05:55:45;;;;;;;44.53;21.80;;;3.00;99.90;;;;;;5080606;28;20028;-73
2023/12/29 05:58:11;;;;;;;38.03;19.73;;;3.00;99.90;;;;;;5088030;28;20052;-72
2023/12/29 06:00:37;;;;;;;38.20;20.25;;;2.80;99.90;;;;;;5086402;28;20055;-72
2023/12/29 06:03:06;;;;;;;36.30;19.15;;;2.80;99.90;;;;;;5080562;28;20059;-73
2023/12/29 06:05:32;;;;;;;40.95;18.92;;;2.90;99.90;;;;;;5080695;28;20024;-73
2023/12/29 06:07:58;;;;;;;34.05;17.05;;;3.00;99.90;;;;;;5080881;28;20021;-74
2023/12/29 06:10:23;;;;;;;29.50;14.98;;;2.90;99.90;;;;;;5080606;28;20343;-73
2023/12/29 06:12:49;;;;;;;38.75;18.27;;;2.80;99.90;;;;;;5080123;28;20015;-72
2023/12/29 06:15:15;;;;;;;27.70;15.48;;;3.00;99.90;;;;;;5080001;28;20087;-72
2023/12/29 06:17:41;;;;;;;46.20;25.60;;;2.90;99.90;;;;;;5080591;28;20084;-72
2023/12/29 06:20:08;;;;;;;42.47;21.80;;;2.80;99.90;;;;;;5079746;28;20055;-72
2023/12/29 06:22:33;;;;;;;44.53;21.65;;;2.80;99.90;;;;;;5080298;28;20020;-73
2023/12/29 06:24:59;;;;;;;46.03;21.23;;;2.80;99.90;;;;;;5080376;28;20043;-73
2023/12/29 06:27:25;;;;;;;45.30;20.85;;;2.50;99.90;;;;;;5081003;28;20023;-73
2023/12/29 06:29:51;;;;;;;50.00;21.75;;;2.60;99.90;;;;;;5082922;28;20028;-73
2023/12/29 06:32:17;;;;;;;43.88;20.13;;;3.20;99.90;;;;;;5083144;28;20028;-75
2023/12/29 06:34:43;;;;;;;38.90;18.42;;;2.70;99.90;;;;;;5081462;28;20331;-75
2023/12/29 06:37:08;;;;;;;30.00;14.25;;;3.10;99.90;;;;;;5079302;28;20024;-73
2023/12/29 06:39:34;;;;;;;23.60;11.88;;;2.70;99.90;;;;;;5080069;28;20273;-74
2023/12/29 06:42:00;;;;;;;21.20;10.75;;;2.70;99.90;;;;;;5080443;28;20405;-74
2023/12/29 06:44:25;;;;;;;16.17;9.05;;;2.80;99.90;;;;;;5096410;28;20044;-74
2023/12/29 06:46:51;;;;;;;25.02;12.00;;;;;;;;;;5100768;28;20055;-74
2023/12/29 06:49:17;;;;;;;36.85;18.33;;;2.80;99.90;;;;;;5100834;28;20089;-75
2023/12/29 06:51:43;;;;;;;40.65;19.48;;;2.70;99.90;;;;;;5104529;28;20012;-74
2023/12/29 06:54:09;;;;;;;26.17;14.18;;;2.70;99.90;;;;;;5104472;28;20016;-74
2023/12/29 06:56:34;;;;;;;26.58;14.48;;;2.60;99.90;;;;;;5104287;28;20079;-74
2023/12/29 06:59:00;;;;;;;30.65;14.80;;;2.70;99.90;;;;;;5104185;28;20385;-74
2023/12/29 07:01:25;;;;;;;27.38;15.48;;;2.80;99.90;;;;;;5104403;28;20341;-74
2023/12/29 07:03:51;;;;;;;34.08;16.50;;;2.80;99.90;;;;;;5104316;28;20430;-74
2023/12/29 07:06:17;;;;;;;36.53;17.88;;;;;;;;;;5104220;28;20020;-74
2023/12/29 07:08:43;;;;;;;48.20;22.25;;;2.90;99.90;;;;;;5104438;28;20023;-74
2023/12/29 07:11:12;;;;;;;37.92;19.35;;;3.20;99.90;;;;;;5104327;28;20012;-74
2023/12/29 07:13:38;;;;;;;56.40;26.83;;;3.30;99.90;;;;;;5104083;28;20051;-74
2023/12/29 07:16:04;;;;;;;57.05;29.65;;;3.10;99.90;;;;;;5104370;28;20023;-76
2023/12/29 07:18:30;;;;;;;58.00;26.67;;;;;;;;;;5087142;28;20031;-77
2023/12/29 07:20:56;;;;;;;41.28;21.20;;;2.80;99.90;;;;;;5087227;28;20331;-79
2023/12/29 07:23:24;;;;;;;50.03;25.25;;;3.30;99.90;;;;;;5105015;28;20024;-73
2023/12/29 07:25:50;;;;;;;49.55;27.65;;;3.00;99.90;;;;;;5104570;28;20038;-78
2023/12/29 07:28:15;;;;;;;54.55;25.90;;;3.00;99.90;;;;;;5105256;28;20023;-79
2023/12/29 07:30:41;;;;;;;45.95;23.85;;;;;;;;;;5105485;28;20012;-77
2023/12/29 07:33:07;;;;;;;47.67;24.70;;;3.00;99.90;;;;;;5105341;28;20050;-78
2023/12/29 07:35:33;;;;;;;47.75;24.02;;;3.00;99.90;;;;;;5105656;28;20024;-78
2023/12/29 07:38:01;;;;;;;56.13;26.63;;;3.10;99.90;;;;;;5105408;28;20024;-78
2023/12/29 07:40:27;;;;;;;58.95;28.40;;;3.20;99.90;;;;;;5104887;28;20032;-75
2023/12/29 07:42:52;;;;;;;59.03;26.77;;;3.10;99.90;;;;;;5103790;28;20124;-77
2023/12/29 07:45:18;;;;;;;56.60;26.67;;;;;;;;;;5087480;28;20028;-80
2023/12/29 07:47:44;;;;;;;43.47;22.60;;;;;;;;;;5111920;22;20028;-76
2023/12/29 07:50:10;;;;;;;44.60;21.60;;;3.50;99.90;;;;;;5082436;28;20029;-76
2023/12/29 07:52:36;;;;;;;57.28;23.48;;;3.50;99.90;;;;;;5085103;28;20427;-76
2023/12/29 07:55:02;;;;;;;49.97;23.52;;;;;;;;;;5085204;28;20217;-76
2023/12/29 07:57:29;;;;;;;49.20;23.02;;;;;;;;;;5084726;28;20062;-76
2023/12/29 07:59:55;;;;;;;41.28;22.35;;;;;;;;;;5086645;28;20109;-77
2023/12/29 08:02:21;;;;;;;42.30;22.17;;;;;;;;;;5082504;28;20055;-75
2023/12/29 08:04:48;;;;;;;45.95;23.30;;;4.10;99.90;;;;;;5082901;28;20024;-73
2023/12/29 08:07:14;;;;;;;39.35;20.52;;;4.10;99.90;;;;;;5082489;28;20040;-73
2023/12/29 08:09:39;;;;;;;38.03;21.05;;;4.40;99.90;;;;;;5082397;28;20016;-72
2023/12/29 08:12:06;;;;;;;33.30;19.52;;;4.40;99.90;;;;;;5082214;28;20021;-72
2023/12/29 08:14:32;;;;;;;32.17;18.67;;;4.60;99.90;;;;;;5082623;28;20085;-71
2023/12/29 08:16:57;;;;;;;33.88;20.00;;;4.60;99.90;;;;;;5082103;28;20031;-72
2023/12/29 08:19:23;;;;;;;40.22;22.25;;;4.80;99.90;;;;;;5082039;28;20040;-72
2023/12/29 08:21:49;;;;;;;36.17;20.67;;;4.90;99.90;;;;;;5082197;28;20316;-72
2023/12/29 08:24:15;;;;;;;44.65;23.05;;;5.00;99.90;;;;;;5082366;28;20250;-71
2023/12/29 08:26:46;;;;;;;41.80;23.15;;;5.20;99.90;;;;;;5081885;28;20024;-71
2023/12/29 08:29:11;;;;;;;32.55;19.60;;;5.30;99.90;;;;;;5081662;28;20020;-72
2023/12/29 08:31:37;;;;;;;36.83;20.58;;;5.40;99.90;;;;;;5079550;28;20051;-71
2023/12/29 08:34:03;;;;;;;42.10;22.30;;;5.50;99.90;;;;;;5081435;28;20020;-72
2023/12/29 08:36:28;;;;;;;33.78;21.40;;;5.70;99.90;;;;;;5070850;28;20257;-71
2023/12/29 08:38:54;;;;;;;36.83;21.90;;;6.10;99.90;;;;;;5072229;28;20347;-72
2023/12/29 08:41:20;;;;;;;35.72;20.48;;;5.90;99.90;;;;;;5070324;28;20286;-71
2023/12/29 08:43:45;;;;;;;34.50;19.25;;;6.10;99.90;;;;;;5071393;28;20023;-73
2023/12/29 08:46:11;;;;;;;34.05;20.13;;;6.20;99.90;;;;;;5072053;28;20260;-73
2023/12/29 08:48:37;;;;;;;31.60;19.30;;;6.30;99.90;;;;;;5069767;28;20052;-73
2023/12/29 08:51:02;;;;;;;33.47;20.55;;;6.30;99.90;;;;;;5070571;28;20320;-73
2023/12/29 08:53:31;;;;;;;38.50;23.80;;;6.50;99.90;;;;;;5081043;28;20368;-72
2023/12/29 08:55:56;;;;;;;36.92;22.92;;;6.30;99.90;;;;;;5081154;28;20015;-73
2023/12/29 08:58:22;;;;;;;31.85;20.98;;;6.80;99.90;;;;;;5081079;28;20032;-73
2023/12/29 09:00:48;;;;;;;40.38;21.88;;;8.50;99.90;;;;;;5081265;28;20138;-73
2023/12/29 09:03:13;;;;;;;34.50;21.88;;;6.40;99.90;;;;;;5081395;28;20324;-73
2023/12/29 09:05:39;;;;;;;31.42;21.10;;;6.50;99.90;;;;;;5081981;28;20040;-74
2023/12/29 09:08:05;;;;;;;35.70;21.50;;;6.50;99.90;;;;;;5081569;28;20078;-73
2023/12/29 09:10:30;;;;;;;34.65;21.73;;;6.70;99.90;;;;;;5081374;28;20196;-73
2023/12/29 09:12:56;;;;;;;33.90;21.20;;;6.70;99.90;;;;;;5081046;28;20013;-72
2023/12/29 09:15:23;;;;;;;39.30;22.05;;;6.70;99.90;;;;;;5081194;28;20020;-74
2023/12/29 09:17:48;;;;;;;33.63;21.40;;;6.80;99.90;;;;;;5063588;28;20082;-74
2023/12/29 09:20:14;;;;;;;37.00;22.80;;;6.90;99.90;;;;;;5081268;28;20036;-73
2023/12/29 09:22:40;;;;;;;34.72;20.33;;;7.00;99.90;;;;;;5081163;28;20115;-72
2023/12/29 09:25:06;;;;;;;28.77;18.98;;;7.20;99.90;;;;;;5074485;28;20024;-72
2023/12/29 09:27:31;;;;;;;29.35;19.48;;;7.20;99.90;;;;;;5061098;28;20021;-72
2023/12/29 09:29:57;;;;;;;26.08;18.35;;;7.30;99.90;;;;;;5068331;28;20269;-73
2023/12/29 09:32:23;;;;;;;31.95;19.38;;;7.30;99.90;;;;;;5049343;28;20248;-73
2023/12/29 09:34:48;;;;;;;29.08;17.15;;;7.40;99.90;;;;;;5060946;28;20340;-79
2023/12/29 09:37:14;;;;;;;32.45;20.05;;;7.40;99.90;;;;;;5061015;28;20033;-81
2023/12/29 09:39:39;;;;;;;32.25;19.48;;;7.40;99.90;;;;;;5053383;28;20028;-80
2023/12/29 09:42:06;;;;;;;34.67;20.85;;;;;;;;;;5065117;28;20025;-78
2023/12/29 09:44:35;;;;;;;32.70;19.95;;;5.90;99.90;;;;;;5063626;28;20029;-79
2023/12/29 09:47:02;;;;;;;29.85;18.48;;;7.60;99.90;;;;;;5081500;28;20362;-79
2023/12/29 09:49:37;;;;;;;32.70;19.13;;;7.70;99.90;;;;;;5080871;28;20045;-79
2023/12/29 09:52:05;;;;;;;34.38;20.30;;;7.90;99.90;;;;;;5063981;28;20080;-81
2023/12/29 09:54:32;;;;;;;31.95;20.33;;;8.40;99.90;;;;;;5063716;28;20021;-79
2023/12/29 09:56:59;;;;;;;28.80;18.67;;;8.10;99.90;;;;;;5081552;28;20004;-79
2023/12/29 09:59:27;;;;;;;32.25;19.38;;;8.20;99.90;;;;;;5081154;28;20322;-78
2023/12/29 10:01:53;;;;;;;25.20;16.80;;;8.30;99.80;;;;;;5063387;28;20012;-81
2023/12/29 10:04:19;;;;;;;29.10;18.25;;;8.40;99.90;;;;;;5081182;28;20328;-79
2023/12/29 10:06:48;;;;;;;24.67;16.27;;;8.60;99.00;;;;;;5081239;28;20020;-80
2023/12/29 10:09:16;;;;;;;24.25;16.33;;;8.50;99.20;;;;;;5081060;28;20185;-79
2023/12/29 10:11:46;;;;;;;28.40;18.02;;;8.70;99.90;;;;;;5081319;28;20174;-82
2023/12/29 10:14:46;;;;;;;26.15;17.23;;;8.80;99.90;;;;;;5081013;28;20033;-78
2023/12/29 10:17:29;;;;;;;26.42;17.88;;;8.70;99.90;;;;;;5080867;28;20083;-80
2023/12/29 10:20:21;;;;;;;26.27;17.95;;;8.70;97.30;;;;;;5062992;28;20036;-81
2023/12/29 10:23:12;;;;;;;24.70;16.45;;;8.50;99.40;;;;;;5029984;28;20025;-80
2023/12/29 10:25:38;;;;;;;25.90;16.85;;;8.70;99.80;;;;;;5063388;28;20013;-80
2023/12/29 10:28:09;;;;;;;26.75;16.65;;;8.50;97.30;;;;;;5065050;28;20032;-81
2023/12/29 10:30:35;;;;;;;27.13;16.10;;;8.60;97.70;;;;;;5064776;28;20032;-79
2023/12/29 10:33:02;;;;;;;31.40;17.67;;;8.70;97.60;;;;;;5065403;28;20044;-83
2023/12/29 10:35:31;;;;;;;21.98;15.07;;;9.10;99.90;;;;;;5067075;28;20325;-82
2023/12/29 10:38:11;;;;;;;25.58;15.98;;;8.90;97.10;;;;;;5084768;28;20076;-81
2023/12/29 10:40:36;;;;;;;26.27;15.70;;;9.00;96.30;;;;;;5084617;28;20228;-73
2023/12/29 10:43:06;;;;;;;23.95;16.15;;;9.00;95.90;;;;;;5084168;28;20362;-70
2023/12/29 10:45:32;;;;;;;24.85;16.70;;;9.10;95.50;;;;;;5084366;28;20020;-69
2023/12/29 10:48:00;;;;;;;24.55;16.00;;;9.10;95.60;;;;;;5083979;28;20035;-70
2023/12/29 10:50:27;;;;;;;25.15;16.25;;;9.20;94.50;;;;;;5084320;28;20216;-70
2023/12/29 10:53:12;;;;;;;27.27;16.55;;;9.20;94.70;;;;;;5084286;28;20024;-70
2023/12/29 10:55:38;;;;;;;22.08;14.05;;;9.20;94.00;;;;;;5083923;28;20020;-71
2023/12/29 10:58:05;;;;;;;25.38;15.65;;;9.20;94.10;;;;;;5083954;28;20070;-70
2023/12/29 11:00:35;;;;;;;30.38;17.48;;;9.20;93.70;;;;;;5084093;28;20046;-71
2023/12/29 11:03:01;;;;;;;31.90;17.67;;;9.10;93.30;;;;;;5065916;28;20017;-70
2023/12/29 11:05:27;;;;;;;42.15;21.25;;;9.10;93.20;;;;;;5084068;28;20028;-71
2023/12/29 11:07:54;;;;;;;47.53;24.88;;;9.10;96.10;;;;;;5083793;28;20088;-71
2023/12/29 11:10:21;;;;;;;40.00;22.17;;;9.30;96.30;;;;;;5083771;28;20020;-71
2023/12/29 11:12:48;;;;;;;25.25;16.75;;;9.10;96.20;;;;;;5083962;28;20017;-71
2023/12/29 11:15:15;;;;;;;18.58;13.65;;;10.30;93.80;;;;;;5084089;28;20028;-71
2023/12/29 11:17:51;;;;;;;19.40;13.27;;;9.30;92.90;;;;;;5098244;28;20024;-71
2023/12/29 11:20:17;;;;;;;21.38;15.05;;;9.20;93.10;;;;;;5104078;28;20062;-70
2023/12/29 11:22:46;;;;;;;21.15;14.75;;;9.30;93.00;;;;;;5103816;28;20076;-70
2023/12/29 11:25:12;;;;;;;24.88;14.70;;;9.40;92.80;;;;;;5103813;28;20034;-70
2023/12/29 11:27:40;;;;;;;23.75;13.98;;;9.50;93.00;;;;;;5103569;28;20019;-71
2023/12/29 11:30:07;;;;;;;20.63;13.90;;;9.70;93.00;;;;;;5085611;28;20077;-71
2023/12/29 11:32:44;;;;;;;21.58;14.00;;;9.80;92.20;;;;;;5103489;28;20305;-71
2023/12/29 11:35:15;;;;;;;17.55;12.77;;;10.00;91.60;;;;;;5103429;28;20346;-71
2023/12/29 11:38:19;;;;;;;19.60;13.63;;;10.10;91.50;;;;;;5104090;28;20023;-70
2023/12/29 11:40:52;;;;;;;20.83;13.48;;;10.40;90.80;;;;;;5103759;28;20028;-70
2023/12/29 11:43:18;;;;;;;19.75;12.60;;;10.70;90.00;;;;;;5103399;28;20065;-70
2023/12/29 11:45:45;;;;;;;21.42;14.05;;;10.90;87.30;;;;;;5103276;28;20023;-71
2023/12/29 11:48:11;;;;;;;15.27;10.63;;;11.10;86.40;;;;;;5066835;28;20371;-71
2023/12/29 11:50:40;;;;;;;13.43;10.00;;;11.30;84.20;;;;;;5063056;28;20032;-71
2023/12/29 11:53:07;;;;;;;18.52;10.38;;;11.40;81.00;;;;;;5062820;28;20066;-70
2023/12/29 11:55:37;;;;;;;11.73;8.63;;;11.40;80.20;;;;;;5062804;28;20043;-70
2023/12/29 11:58:25;;;;;;;10.00;7.82;;;11.30;79.90;;;;;;5062894;28;20029;-70
2023/12/29 12:00:51;;;;;;;10.48;7.75;;;11.20;85.50;;;;;;5062603;28;20021;-70
2023/12/29 12:03:25;;;;;;;11.80;7.90;;;11.20;79.90;;;;;;5064917;28;20269;-70
2023/12/29 12:05:51;;;;;;;13.73;9.02;;;11.20;79.60;;;;;;5061837;28;20209;-70
2023/12/29 12:08:39;;;;;;;10.57;8.30;;;11.20;79.70;;;;;;5062589;28;20025;-70
2023/12/29 12:11:28;;;;;;;14.95;8.73;;;11.20;79.50;;;;;;5062636;28;20029;-70
2023/12/29 12:13:53;;;;;;;18.08;10.50;;;11.20;78.60;;;;;;5050776;28;20329;-71
2023/12/29 12:16:44;;;;;;;19.50;10.77;;;11.10;79.10;;;;;;5062465;28;20031;-71
2023/12/29 12:19:11;;;;;;;15.05;9.90;;;11.10;79.10;;;;;;5062476;28;20039;-70
2023/12/29 12:21:37;;;;;;;17.80;10.60;;;11.10;79.30;;;;;;5064560;28;20078;-70
2023/12/29 12:24:07;;;;;;;15.15;10.48;;;11.20;78.70;;;;;;5062202;28;20229;-70
2023/12/29 12:26:34;;;;;;;17.17;12.30;;;11.30;78.20;;;;;;5062498;28;20017;-70
2023/12/29 12:29:00;;;;;;;17.65;12.13;;;11.40;78.30;;;;;;5062134;28;20056;-71
2023/12/29 12:31:29;;;;;;;18.23;12.43;;;11.60;84.90;;;;;;5062105;28;20225;-70
2023/12/29 12:33:58;;;;;;;19.08;11.73;;;11.40;79.30;;;;;;5061910;28;20029;-71
2023/12/29 12:36:24;;;;;;;16.13;11.65;;;11.50;79.70;;;;;;5061935;28;20051;-70
2023/12/29 12:38:57;;;;;;;14.65;10.80;;;11.60;80.80;;;;;;5064631;28;20268;-70
2023/12/29 12:41:24;;;;;;;15.85;11.27;;;11.50;80.50;;;;;;5061926;28;20100;-70
2023/12/29 12:43:57;;;;;;;14.95;10.30;;;11.60;80.80;;;;;;5061708;28;20024;-70
2023/12/29 12:46:27;;;;;;;16.70;11.32;;;11.60;81.00;;;;;;5058595;28;20059;-70